Bookmark and Share
Track history (hours):
 

Umar1

Last reported at 2014-Apr-22 15:32 UTC. Time now 2014-Apr-24 03:58 UTC.
Position N 35°54' E 014°50'.

Length 100 m; draft 6.1 m.

Type: Ship (hazmat cat C). MMSI: 248751000.

NotesDate/timePositionNaut miles runAvg speedWind from/ knotsBaromVisibWave heightAir tempDewpointWater temp
2014-Apr-22 15:32N 35°54' E 014°50'0 0.0
2014-Apr-22 13:32N 35°54' E 014°50'0 0.0
2014-Apr-22 08:11N 35°54' E 014°50'0 0.0
2014-Apr-22 07:26N 35°54' E 014°50'0 0.0
2014-Apr-22 05:26N 35°54' E 014°51'0 0.0
2014-Apr-22 04:26N 35°54' E 014°51'0 0.0
2014-Apr-22 03:32N 35°54' E 014°51'0 0.0
2014-Apr-22 02:32N 35°54' E 014°51'0 0.1
2014-Apr-22 01:32N 35°54' E 014°51'0 0.0
2014-Apr-22 00:32N 35°54' E 014°51'0 0.0
2014-Apr-21 23:26N 35°54' E 014°51'0 0.0
2014-Apr-21 22:32N 35°54' E 014°51'0 0.0
2014-Apr-21 21:32N 35°54' E 014°51'0 0.0
2014-Apr-21 20:26N 35°54' E 014°51'0 0.1
2014-Apr-21 19:29N 35°54' E 014°51'0 0.0
2014-Apr-21 18:26N 35°54' E 014°51'0 0.1
2014-Apr-21 17:32N 35°54' E 014°51'0 0.0
2014-Apr-21 16:32N 35°54' E 014°51'0 0.0
2014-Apr-21 15:32N 35°54' E 014°51'0 0.0
2014-Apr-21 14:32N 35°54' E 014°51'0 0.0
2014-Apr-21 13:32N 35°54' E 014°51'0 0.0
2014-Apr-21 12:32N 35°54' E 014°51'0 0.0
2014-Apr-21 11:29N 35°54' E 014°51'0 0.0
2014-Apr-21 10:11N 35°54' E 014°51'0 0.0
2014-Apr-21 09:26N 35°54' E 014°51'0 0.0
2014-Apr-20 23:26N 35°54' E 014°51'0 0.0
2014-Apr-20 21:32N 35°54' E 014°51'0 0.0
2014-Apr-20 20:32N 35°54' E 014°51'0 0.0
2014-Apr-20 17:29N 35°54' E 014°51'0 0.0
2014-Apr-20 15:32N 35°54' E 014°51'0 0.0
2014-Apr-20 13:32N 35°54' E 014°51'0 0.0
2014-Apr-20 01:20N 35°54' E 014°51'0 0.0
2014-Apr-20 00:32N 35°54' E 014°51'0 0.0
2014-Apr-19 23:32N 35°54' E 014°51'0 0.0
2014-Apr-19 22:32N 35°54' E 014°51'0 0.0
2014-Apr-19 21:11N 35°54' E 014°51'0 0.0
2014-Apr-19 20:32N 35°54' E 014°51'0 0.0
2014-Apr-19 19:32N 35°54' E 014°51'  
2014-Apr-13 20:33N 36°40' E 014°30'199 9.8
2014-Apr-13 00:13N 38°03' E 010°43'6 9.5
2014-Apr-12 23:33N 38°03' E 010°35'11 9.7
2014-Apr-12 22:28N 38°05' E 010°21'9 9.9
2014-Apr-12 21:33N 38°06' E 010°10'1110.2
2014-Apr-12 20:27N 38°08' E 009°56'910.0
2014-Apr-12 19:33N 38°09' E 009°45'1010.0
2014-Apr-12 18:32N 38°11' E 009°32'1010.1
2014-Apr-12 17:33N 38°13' E 009°20'1010.0
2014-Apr-12 16:33N 38°15' E 009°07'  

Dump ship's entire track history

sailing weather and tide predictions

Umar1 — 9HA2498 — position and weather